Time;durP1;ratioP1;P1;durP2;ratioP2;P2;SDS_P1;SDS_P2;PMS_P1;PMS_P2;Temp;Humidity;BMP_temperature;BMP_pressure;BME280_temperature;BME280_humidity;BME280_pressure;Samples;Min_cycle;Max_cycle;Signal;HPM_P1;HPM_P2
2021/05/06 00:29:39;;;;;;;1.60;1.40;;;;;;;6.29;88.82;95976.72;5062715;28;20502;-59
2021/05/06 00:33:45;;;;;;;5.40;2.23;;;;;;;5.47;95.23;95932.28;5055812;28;20420;-61
2021/05/06 00:36:10;;;;;;;2.30;2.00;;;;;;;5.82;93.42;95933.59;5055622;28;20497;-59
2021/05/06 00:38:44;;;;;;;2.93;1.77;;;;;;;6.05;91.49;95931.28;5056269;28;20187;-59
2021/05/06 00:44:15;;;;;;;4.37;2.40;;;;;;;5.89;92.38;95929.16;5071771;28;20409;-59
2021/05/06 01:02:54;;;;;;;2.00;1.87;;;;;;;6.13;90.94;95915.44;5075118;28;20948;-60
2021/05/06 01:05:43;;;;;;;3.33;1.70;;;;;;;5.80;92.66;95919.94;5056224;28;20420;-62
2021/05/06 01:08:17;;;;;;;1.60;1.50;;;;;;;5.79;92.38;95923.56;5055728;28;20427;-62
2021/05/06 01:13:08;;;;;;;2.03;1.80;;;;;;;5.71;93.02;95921.19;5055237;28;20453;-62
2021/05/06 01:15:34;;;;;;;1.80;1.70;;;;;;;5.74;92.68;95920.00;5054528;28;20183;-62
2021/05/06 01:17:59;;;;;;;2.30;2.10;;;;;;;5.97;91.30;95909.88;5054348;28;20176;-62
2021/05/06 01:20:25;;;;;;;1.87;1.77;;;;;;;5.91;91.09;95923.75;5060045;28;20206;-62
2021/05/06 01:22:50;;;;;;;4.07;2.43;;;;;;;5.82;91.37;95917.13;5074804;28;20166;-59
2021/05/06 01:25:17;;;;;;;2.20;2.00;;;;;;;5.81;91.96;95918.16;5074835;28;20250;-62
2021/05/06 01:28:06;;;;;;;3.93;2.40;;;;;;;5.82;92.58;95923.16;5073297;28;20205;-61
2021/05/06 01:38:52;;;;;;;2.30;2.00;;;;;;;5.64;92.21;95922.22;5060471;28;20891;-62
2021/05/06 01:41:42;;;;;;;3.20;2.90;;;;;;;5.86;91.97;95919.16;5054580;28;20262;-62
2021/05/06 02:00:09;;;;;;;2.27;2.07;;;;;;;6.31;90.23;95906.09;5054157;28;20524;-59
2021/05/06 02:02:35;;;;;;;2.83;2.57;;;;;;;6.05;91.14;95901.84;5066575;28;20429;-62
2021/05/06 02:05:01;;;;;;;6.00;2.60;;;;;;;6.19;90.73;95904.16;5058265;28;20903;-62
2021/05/06 02:07:26;;;;;;;4.90;2.20;;;;;;;5.85;91.44;95901.13;5053345;28;20458;-62
2021/05/06 02:09:51;;;;;;;5.50;2.87;;;;;;;6.11;90.85;95904.41;5053791;28;20188;-59
2021/05/06 02:12:18;;;;;;;3.97;2.00;;;;;;;6.25;89.00;95899.88;5069391;28;20203;-62
2021/05/06 02:14:50;;;;;;;2.73;2.00;;;;;;;6.19;89.52;95896.34;5073893;28;20722;-58
2021/05/06 02:17:16;;;;;;;4.00;2.47;;;;;;;5.87;90.41;95901.72;5061063;28;20793;-61
2021/05/06 02:19:45;;;;;;;5.23;2.27;;;;;;;5.90;91.00;95886.47;5053541;28;20447;-59
2021/05/06 02:22:10;;;;;;;2.27;2.07;;;;;;;5.82;90.44;95885.84;5054023;28;20166;-59
2021/05/06 02:24:37;;;;;;;5.57;2.43;;;;;;;6.02;90.18;95873.56;5053633;28;20417;-62
2021/05/06 02:27:02;;;;;;;5.80;2.90;;;;;;;6.00;89.89;95872.97;5053230;28;20199;-63
2021/05/06 02:29:28;;;;;;;4.47;2.30;;;;;;;6.20;88.94;95874.47;5053823;28;20940;-58
2021/05/06 02:31:53;;;;;;;6.10;2.70;;;;;;;6.08;89.28;95872.72;5054227;28;20183;-59
2021/05/06 02:34:19;;;;;;;3.57;2.30;;;;;;;6.34;88.10;95866.56;5053493;28;20171;-62
2021/05/06 02:36:44;;;;;;;4.70;2.00;;;;;;;6.21;88.37;95875.25;5053396;28;20246;-59
2021/05/06 02:39:09;;;;;;;5.47;2.47;;;;;;;6.25;88.01;95879.03;5053127;28;20195;-62
2021/05/06 02:41:35;;;;;;;3.20;2.70;;;;;;;6.19;88.11;95880.69;5053519;28;20179;-62
2021/05/06 02:44:00;;;;;;;3.07;2.30;;;;;;;5.99;89.63;95872.19;5052163;28;20325;-59
2021/05/06 02:46:26;;;;;;;4.00;2.30;;;;;;;5.93;89.82;95873.00;5054367;28;20200;-59
2021/05/06 02:48:52;;;;;;;3.20;2.13;;;;;;;6.20;89.02;95873.66;5052706;28;20279;-59
2021/05/06 02:51:18;;;;;;;3.00;2.20;;;;;;;6.31;88.14;95885.22;5053247;28;20545;-59
2021/05/06 02:53:52;;;;;;;2.57;2.37;;;;;;;6.28;89.06;95881.22;5053486;28;20414;-59
2021/05/06 02:56:26;;;;;;;4.67;2.40;;;;;;;5.86;91.71;95877.47;5053402;28;20246;-62
2021/05/06 03:04:16;;;;;;;4.23;2.40;;;;;;;6.11;91.65;95883.53;5053707;28;20404;-62
2021/05/06 03:06:55;;;;;;;2.80;2.40;;;;;;;6.13;92.00;95884.13;5057372;28;20446;-62
2021/05/06 03:23:06;;;;;;;2.90;2.47;;;;;;;5.43;100.00;95883.41;5077246;28;20451;-61
2021/05/06 03:25:27;;;;;;;5.03;3.23;;;;;;;5.47;100.00;95880.19;5077810;28;20413;-59
2021/05/06 03:28:07;;;;;;;6.50;2.80;;;;;;;5.30;100.00;95867.81;5074866;28;20412;-58
2021/05/06 03:41:43;;;;;;;3.07;2.40;;;;;;;5.05;100.00;95826.81;5074655;28;20419;-59
2021/05/06 04:18:57;;;;;;;8.83;5.57;;;;;;;6.50;96.17;95798.19;5075692;28;20193;-61
2021/05/06 04:27:12;;;;;;;6.90;5.00;;;;;;;6.49;96.13;95797.38;5075493;28;20459;-59
2021/05/06 04:37:51;;;;;;;9.27;4.63;;;;;;;6.63;96.00;95774.59;5074121;28;20783;-59
2021/05/06 05:04:28;;;;;;;7.07;4.47;;;;;;;6.45;97.10;95772.72;5061387;28;20443;-59
2021/05/06 05:07:03;;;;;;;5.90;3.73;;;;;;;6.66;96.30;95774.94;5074894;28;20460;-59
2021/05/06 05:12:15;;;;;;;5.70;4.10;;;;;;;6.92;95.47;95776.50;5075102;28;20759;-61
2021/05/06 05:25:38;;;;;;;3.37;2.40;;;;;;;7.04;95.29;95769.53;5054672;28;20395;-59
2021/05/06 05:28:06;;;;;;;5.73;3.83;;;;;;;6.93;94.49;95770.25;5052110;28;20891;-61
2021/05/06 05:30:34;;;;;;;7.43;4.27;;;;;;;7.00;93.98;95765.75;5060572;28;20812;-61
2021/05/06 05:32:59;;;;;;;4.20;3.80;;;;;;;7.03;94.15;95755.66;5074435;28;20783;-61
2021/05/06 05:35:37;;;;;;;6.10;4.57;;;;;;;6.95;94.91;95753.38;5058350;28;20422;-59
2021/05/06 05:38:55;;;;;;;6.27;4.77;;;;;;;6.92;95.66;95760.84;5054236;28;20617;-59
2021/05/06 05:56:35;;;;;;;5.47;3.43;;;;;;;7.42;93.92;95757.00;5054282;28;20885;-61
2021/05/06 05:59:00;;;;;;;6.40;3.40;;;;;;;7.22;95.93;95748.63;5053656;28;20492;-60
2021/05/06 06:01:27;;;;;;;5.03;3.67;;;;;;;6.90;97.30;95753.19;5053941;28;20174;-59
2021/05/06 06:03:54;;;;;;;4.30;2.47;;;;;;;6.87;97.23;95748.41;5059455;28;20540;-61
2021/05/06 06:06:20;;;;;;;2.73;2.50;;;;;;;7.18;95.08;95748.28;5072630;28;20447;-61
2021/05/06 06:08:46;;;;;;;5.07;2.87;;;;;;;7.16;94.90;95752.91;5066877;28;20435;-59
2021/05/06 06:11:11;;;;;;;8.53;2.70;;;;;;;6.89;93.79;95756.84;5053801;28;20957;-59
2021/05/06 06:13:37;;;;;;;3.80;2.90;;;;;;;6.91;93.98;95757.41;5054099;28;20495;-59
2021/05/06 06:16:11;;;;;;;3.20;2.20;;;;;;;7.11;92.75;95765.03;5054788;28;20530;-60
2021/05/06 06:18:45;;;;;;;2.50;2.07;;;;;;;6.49;95.53;95757.44;5053304;28;20168;-59
2021/05/06 06:21:19;;;;;;;7.63;2.10;;;;;;;6.39;95.24;95764.97;5053853;28;20407;-59
2021/05/06 06:23:45;;;;;;;4.23;2.50;;;;;;;6.57;95.16;95763.19;5053939;28;20420;-61
2021/05/06 06:26:11;;;;;;;5.73;2.67;;;;;;;6.53;95.26;95759.41;5052206;28;20446;-60
2021/05/06 06:28:44;;;;;;;4.10;2.47;;;;;;;6.63;95.74;95751.88;5053313;28;20402;-61
2021/05/06 06:33:41;;;;;;;3.97;2.30;;;;;;;6.22;97.93;95752.47;5053575;28;20502;-60
2021/05/06 06:36:07;;;;;;;6.70;2.40;;;;;;;6.62;96.13;95745.06;5053478;28;20453;-59
2021/05/06 06:38:33;;;;;;;3.27;2.47;;;;;;;6.85;94.04;95736.59;5052969;28;20261;-61
2021/05/06 06:40:59;;;;;;;5.20;2.50;;;;;;;6.73;94.50;95738.34;5065718;28;20925;-61
2021/05/06 06:43:25;;;;;;;3.20;2.20;;;;;;;6.93;93.97;95733.69;5071781;28;20546;-60
2021/05/06 06:45:50;;;;;;;5.63;3.13;;;;;;;6.92;94.59;95732.13;5073239;28;20405;-61
2021/05/06 06:48:17;;;;;;;3.20;2.40;;;;;;;6.97;94.40;95730.44;5055961;28;20264;-59
2021/05/06 06:50:42;;;;;;;4.53;2.97;;;;;;;6.62;95.13;95723.38;5052792;28;20667;-61
2021/05/06 06:53:09;;;;;;;5.47;2.70;;;;;;;7.07;92.89;95722.06;5053524;28;20414;-59
2021/05/06 06:55:35;;;;;;;7.00;2.73;;;;;;;7.01;92.95;95725.59;5053638;28;20180;-62
2021/05/06 06:58:15;;;;;;;5.60;2.43;;;;;;;6.69;92.44;95729.34;5052881;28;20772;-61
2021/05/06 07:00:45;;;;;;;3.13;2.13;;;;;;;6.62;94.02;95726.00;5053230;28;20187;-60
2021/05/06 07:03:11;;;;;;;4.37;2.80;;;;;;;6.68;94.69;95730.38;5052959;28;20398;-59
2021/05/06 07:05:38;;;;;;;6.60;2.53;;;;;;;6.84;93.86;95730.59;5054159;28;20424;-61
2021/05/06 07:08:23;;;;;;;5.83;2.90;;;;;;;7.37;91.15;95720.31;5053150;28;20422;-60
2021/05/06 07:10:50;;;;;;;2.97;2.43;;;;;;;7.15;90.83;95717.38;5056238;28;20420;-60
2021/05/06 07:13:17;;;;;;;3.27;2.43;;;;;;;7.08;93.50;95716.63;5071295;28;20496;-59
2021/05/06 07:15:50;;;;;;;3.90;2.40;;;;;;;7.02;92.13;95719.34;5073078;28;20407;-59
2021/05/06 07:18:18;;;;;;;2.77;2.50;;;;;;;7.29;92.94;95716.19;5072924;28;20462;-61
2021/05/06 07:20:45;;;;;;;2.17;2.07;;;;;;;7.07;93.63;95719.47;5073005;28;20415;-62
2021/05/06 07:23:19;;;;;;;2.40;2.20;;;;;;;7.30;92.63;95714.38;5069994;28;20935;-59
2021/05/06 07:25:46;;;;;;;3.17;2.67;;;;;;;7.34;92.53;95719.94;5071247;28;20422;-62
2021/05/06 07:28:29;;;;;;;4.57;2.67;;;;;;;7.73;90.86;95720.19;5071297;28;20427;-61
2021/05/06 07:30:55;;;;;;;6.00;2.50;;;;;;;7.95;88.48;95726.47;5053117;28;20534;-62
2021/05/06 07:33:21;;;;;;;3.37;2.60;;;;;;;8.08;88.33;95723.66;5053089;28;20413;-62
2021/05/06 07:35:46;;;;;;;2.60;2.40;;;;;;;7.99;86.88;95719.78;5053031;28;20408;-66
2021/05/06 07:38:12;;;;;;;7.50;2.83;;;;;;;8.15;86.38;95713.88;5054427;28;20241;-66
2021/05/06 07:40:39;;;;;;;5.60;2.67;;;;;;;8.25;84.67;95716.78;5061847;28;20384;-76
2021/05/06 07:43:05;;;;;;;8.00;3.43;;;;;;;8.25;84.09;95723.84;5052135;28;20232;-69
2021/05/06 07:45:31;;;;;;;8.20;2.77;;;;;;;8.37;84.54;95711.53;5061488;28;20464;-67
2021/05/06 07:47:58;;;;;;;9.23;3.97;;;;;;;8.56;84.55;95713.03;5052393;28;20483;-69
2021/05/06 07:50:23;;;;;;;5.70;2.40;;;;;;;8.75;83.23;95711.09;5062155;28;20217;-70
2021/05/06 07:52:50;;;;;;;4.50;2.27;;;;;;;8.61;82.21;95707.91;5072496;28;20421;-66
2021/05/06 07:55:16;;;;;;;5.60;2.97;;;;;;;9.07;80.81;95709.66;5076293;28;20172;-66
2021/05/06 07:57:41;;;;;;;6.87;2.90;;;;;;;9.28;82.04;95707.19;5074121;28;20485;-66
2021/05/06 08:00:09;;;;;;;5.23;2.37;;;;;;;9.43;79.19;95705.88;5075370;28;20196;-66
2021/05/06 08:02:35;;;;;;;5.57;2.50;;;;;;;9.31;79.46;95698.84;5075860;28;20179;-66
2021/05/06 08:05:01;;;;;;;3.77;2.37;;;;;;;9.42;78.71;95712.16;5076227;28;20774;-66
2021/05/06 08:07:26;;;;;;;4.63;2.70;;;;;;;9.58;78.47;95714.81;5074852;28;20193;-71
2021/05/06 08:09:51;;;;;;;7.50;2.80;;;;;;;9.30;78.59;95707.75;5076306;28;20610;-67
2021/05/06 08:12:19;;;;;;;6.40;2.30;;;;;;;9.56;76.11;95708.22;5076132;28;20174;-66
2021/05/06 08:14:44;;;;;;;11.63;3.00;;;;;;;9.70;76.20;95704.25;5064110;28;20181;-70
2021/05/06 08:17:10;;;;;;;6.73;2.40;;;;;;;9.88;76.12;95704.84;5055721;28;20409;-70
2021/05/06 08:19:35;;;;;;;4.00;2.57;;;;;;;10.03;74.51;95702.47;5055979;28;20243;-66
2021/05/06 08:22:01;;;;;;;5.30;2.43;;;;;;;9.72;76.13;95695.13;5056033;28;20638;-66
2021/05/06 08:24:26;;;;;;;12.17;3.50;;;;;;;9.56;76.63;95697.72;5064933;28;20261;-64
2021/05/06 08:26:52;;;;;;;4.90;2.30;;;;;;;9.71;75.96;95690.91;5066566;28;20201;-59
2021/05/06 08:29:17;;;;;;;9.57;3.10;;;;;;;9.89;76.00;95693.31;5057254;28;20190;-62
2021/05/06 08:31:43;;;;;;;6.40;3.03;;;;;;;9.79;76.03;95692.34;5075855;28;20198;-62
2021/05/06 08:34:08;;;;;;;3.80;2.60;;;;;;;9.77;77.57;95683.91;5074137;28;20536;-67
2021/05/06 08:36:34;;;;;;;14.70;3.77;;;;;;;9.95;77.67;95681.06;5071367;28;20699;-66
2021/05/06 08:38:59;;;;;;;7.63;2.63;;;;;;;10.11;76.44;95681.09;5067171;28;20199;-67
2021/05/06 08:41:25;;;;;;;7.50;3.00;;;;;;;10.36;75.93;95680.72;5052070;28;20199;-63
2021/05/06 08:43:57;;;;;;;9.50;3.63;;;;;;;10.42;74.62;95690.22;5061704;28;20243;-68
2021/05/06 08:46:23;;;;;;;19.83;4.97;;;;;;;10.73;74.52;95684.38;5071466;28;20721;-64
2021/05/06 08:48:48;;;;;;;11.20;3.70;;;;;;;10.64;73.91;95679.75;5064061;28;20449;-68
2021/05/06 08:51:15;;;;;;;13.13;3.40;;;;;;;10.31;74.30;95684.03;5070578;28;20612;-62
2021/05/06 08:53:42;;;;;;;14.13;4.00;;;;;;;10.14;75.68;95687.72;5071818;28;20924;-63
2021/05/06 08:56:08;;;;;;;7.77;3.20;;;;;;;9.55;79.72;95681.19;5058565;28;20504;-64
2021/05/06 08:58:33;;;;;;;14.60;4.17;;;;;;;9.86;78.83;95679.88;5050881;28;20977;-68
2021/05/06 09:00:59;;;;;;;7.87;3.20;;;;;;;10.56;75.98;95681.00;5051712;28;20175;-67
2021/05/06 09:03:24;;;;;;;11.83;3.87;;;;;;;10.72;73.52;95682.78;5051546;28;20273;-65
2021/05/06 09:06:08;;;;;;;12.70;3.63;;;;;;;10.75;75.23;95690.19;5051711;28;20659;-67
2021/05/06 09:08:35;;;;;;;13.53;4.20;;;;;;;10.95;74.44;95684.38;5052983;28;20175;-66
2021/05/06 09:11:00;;;;;;;9.23;3.33;;;;;;;11.22;75.52;95687.84;5070024;28;20404;-66
2021/05/06 09:13:28;;;;;;;7.37;2.93;;;;;;;10.66;74.49;95682.94;5070677;28;20463;-67
2021/05/06 09:15:54;;;;;;;10.67;3.50;;;;;;;11.10;74.10;95679.31;5071505;28;20178;-68
2021/05/06 09:18:42;;;;;;;8.07;3.23;;;;;;;11.10;74.67;95682.75;5071102;28;20886;-66
2021/05/06 09:21:27;;;;;;;14.60;4.43;;;;;;;10.97;74.31;95682.31;5071150;28;20179;-67
2021/05/06 09:24:47;;;;;;;9.60;3.23;;;;;;;10.73;75.26;95689.63;5069889;28;20421;-69
2021/05/06 09:27:06;;;;;;;14.67;4.33;;;;;;;11.00;75.21;95681.81;5058592;28;20468;-67
2021/05/06 09:29:48;;;;;;;14.33;3.87;;;;;;;10.94;73.57;95682.81;5059380;28;20442;-68
2021/05/06 09:32:23;;;;;;;12.03;3.67;;;;;;;10.94;73.78;95685.44;5051158;28;20250;-67
2021/05/06 09:34:52;;;;;;;11.80;3.70;;;;;;;10.47;76.36;95692.16;5050449;28;20431;-72
2021/05/06 09:37:29;;;;;;;9.07;3.63;;;;;;;10.64;76.18;95691.06;5049649;28;20513;-80
2021/05/06 09:40:03;;;;;;;11.37;3.40;;;;;;;10.43;76.19;95680.53;5051778;28;20452;-80
2021/05/06 09:42:40;;;;;;;10.77;4.10;;;;;;;10.38;76.70;95683.88;5050722;28;20421;-80
2021/05/06 09:45:07;;;;;;;11.87;3.50;;;;;;;10.86;75.27;95684.00;5050721;28;20423;-80
2021/05/06 09:47:32;;;;;;;9.53;3.40;;;;;;;10.51;75.58;95682.75;5049862;28;20463;-75
2021/05/06 09:49:58;;;;;;;10.20;4.47;;;;;;;10.95;74.98;95677.28;5055864;28;20535;-75
2021/05/06 09:52:23;;;;;;;13.03;3.90;;;;;;;11.20;74.65;95677.59;5058579;28;20181;-76
2021/05/06 09:54:51;;;;;;;13.50;3.80;;;;;;;11.16;74.11;95684.38;5070374;28;20192;-81
2021/05/06 09:57:29;;;;;;;8.90;3.47;;;;;;;11.20;74.70;95682.84;5070120;28;20170;-81
2021/05/06 10:00:24;;;;;;;8.50;3.87;;;;;;;11.06;74.04;95673.75;5069903;28;20440;-80
2021/05/06 10:02:50;;;;;;;12.67;4.07;;;;;;;10.80;76.34;95676.28;5070158;28;20846;-76
2021/05/06 10:05:16;;;;;;;8.87;3.20;;;;;;;10.59;77.15;95677.06;5068629;28;20519;-78
2021/05/06 10:07:54;;;;;;;10.63;3.73;;;;;;;10.66;77.45;95678.50;5067128;28;20708;-82
2021/05/06 10:10:23;;;;;;;21.93;6.30;;;;;;;10.67;79.06;95674.81;5069613;28;20434;-82
2021/05/06 10:12:49;;;;;;;7.40;3.40;;;;;;;10.55;80.36;95678.59;5069882;28;20436;-76
2021/05/06 10:15:15;;;;;;;10.63;3.60;;;;;;;10.22;83.05;95674.16;5069607;28;20413;-76
2021/05/06 10:17:40;;;;;;;9.67;3.63;;;;;;;9.99;85.87;95669.06;5069968;28;20170;-76
2021/05/06 10:20:07;;;;;;;8.10;3.40;;;;;;;10.28;84.48;95662.72;5067728;28;20205;-76
2021/05/06 10:22:34;;;;;;;8.40;3.20;;;;;;;10.11;84.82;95670.59;5069455;28;20670;-76
2021/05/06 10:25:07;;;;;;;7.90;3.13;;;;;;;9.49;86.64;95671.66;5070078;28;20446;-76
2021/05/06 10:27:33;;;;;;;8.90;3.90;;;;;;;9.13;88.64;95674.66;5069642;28;20529;-76
2021/05/06 10:29:58;;;;;;;7.70;3.23;;;;;;;9.05;89.58;95665.34;5069998;28;20426;-76
2021/05/06 10:32:29;;;;;;;10.80;3.07;;;;;;;9.26;89.75;95663.88;5070018;28;20178;-76
2021/05/06 10:34:57;;;;;;;8.50;2.73;;;;;;;9.41;88.98;95658.13;5049915;28;20893;-77
2021/05/06 10:37:27;;;;;;;9.43;3.50;;;;;;;9.33;89.29;95669.75;5068684;28;20432;-76
2021/05/06 10:39:53;;;;;;;9.97;3.63;;;;;;;9.24;88.31;95660.69;5069747;28;20470;-76
2021/05/06 10:42:28;;;;;;;7.23;3.17;;;;;;;9.14;87.16;95661.31;5069869;28;20472;-76
2021/05/06 10:45:01;;;;;;;10.83;3.03;;;;;;;9.00;88.04;95662.63;5069766;28;20540;-76
2021/05/06 10:47:39;;;;;;;6.80;2.80;;;;;;;9.19;88.08;95650.13;5067156;28;20477;-76
2021/05/06 10:50:11;;;;;;;6.43;2.53;;;;;;;9.14;85.98;95645.59;5063175;28;20458;-76
2021/05/06 10:52:37;;;;;;;10.63;3.27;;;;;;;8.66;86.58;95658.25;5058467;28;20431;-76
2021/05/06 10:55:04;;;;;;;8.80;3.20;;;;;;;8.74;87.83;95639.56;5066064;28;20771;-72
2021/05/06 10:57:34;;;;;;;9.07;2.90;;;;;;;8.79;86.83;95642.28;5067848;28;20636;-69
2021/05/06 11:00:00;;;;;;;10.07;2.80;;;;;;;8.65;89.46;95638.34;5069240;28;20511;-72
2021/05/06 11:02:42;;;;;;;5.67;2.60;;;;;;;9.14;89.60;95639.56;5055267;28;20461;-72
2021/05/06 11:05:21;;;;;;;8.37;2.87;;;;;;;9.06;90.40;95626.81;5049718;28;20411;-61
2021/05/06 11:08:05;;;;;;;8.17;3.57;;;;;;;9.51;88.04;95630.25;5049370;28;20462;-67
2021/05/06 11:10:42;;;;;;;10.73;3.40;;;;;;;9.62;88.30;95624.13;5048899;28;20535;-65
2021/05/06 11:13:08;;;;;;;7.20;2.50;;;;;;;9.67;87.66;95616.38;5049637;28;20415;-67
2021/05/06 11:15:34;;;;;;;9.77;3.47;;;;;;;9.61;87.08;95611.25;5055000;28;20789;-67
2021/05/06 11:18:01;;;;;;;6.93;2.90;;;;;;;9.60;86.83;95614.94;5049355;28;20537;-67
2021/05/06 11:20:26;;;;;;;6.10;2.97;;;;;;;9.53;86.67;95612.44;5052751;28;21047;-69
2021/05/06 11:23:00;;;;;;;5.93;2.37;;;;;;;9.02;87.90;95610.00;5061603;28;20509;-66
2021/05/06 11:25:25;;;;;;;4.07;2.10;;;;;;;9.16;84.96;95596.38;5069173;28;20176;-66
2021/05/06 11:28:02;;;;;;;6.00;3.03;;;;;;;9.37;83.57;95601.97;5071188;28;20979;-72
2021/05/06 11:30:42;;;;;;;10.20;3.57;;;;;;;9.35;84.06;95605.59;5059024;28;20556;-73
2021/05/06 11:33:20;;;;;;;5.97;2.40;;;;;;;9.06;84.21;95590.13;5053513;28;20424;-72
2021/05/06 11:36:11;;;;;;;7.83;2.97;;;;;;;9.41;81.83;95584.72;5052697;28;20785;-71
2021/05/06 11:38:39;;;;;;;8.90;2.63;;;;;;;8.98;83.43;95578.22;5052724;28;20489;-72
2021/05/06 11:41:13;;;;;;;8.87;2.43;;;;;;;9.34;81.90;95577.00;5053185;28;20503;-72
2021/05/06 11:43:42;;;;;;;6.83;2.27;;;;;;;9.39;81.14;95558.72;5053092;28;20508;-72
2021/05/06 11:46:08;;;;;;;6.80;2.10;;;;;;;9.56;82.79;95558.75;5053940;28;20455;-73
2021/05/06 11:48:53;;;;;;;8.53;2.50;;;;;;;9.89;79.58;95566.59;5052495;28;20488;-72
2021/05/06 11:51:36;;;;;;;5.50;2.07;;;;;;;9.69;80.01;95563.66;5052792;28;20941;-70
2021/05/06 11:54:16;;;;;;;6.17;2.53;;;;;;;9.77;80.01;95545.69;5057193;28;20593;-66
2021/05/06 11:56:44;;;;;;;8.03;2.67;;;;;;;9.75;80.53;95547.75;5066742;28;20403;-66
2021/05/06 11:59:15;;;;;;;7.50;3.00;;;;;;;9.77;81.60;95550.94;5060687;28;20777;-64
2021/05/06 12:01:40;;;;;;;2.37;1.53;;;;;;;9.29;81.45;95543.63;5066251;28;20427;-64
2021/05/06 12:04:06;;;;;;;1.27;1.17;;;;;;;9.11;82.25;95537.84;5076226;28;20406;-64
2021/05/06 12:06:36;;;;;;;3.37;1.40;;;;;;;9.15;82.98;95534.50;5076274;28;20201;-62
2021/05/06 12:09:07;;;;;;;2.50;1.20;;;;;;;9.23;80.59;95525.44;5060828;28;20190;-63
2021/05/06 12:11:41;;;;;;;4.73;2.07;;;;;;;9.48;81.75;95523.22;5055843;28;20501;-62
2021/05/06 12:14:09;;;;;;;1.80;1.33;;;;;;;9.61;79.76;95515.03;5055903;28;20809;-64
2021/05/06 12:16:35;;;;;;;1.80;1.30;;;;;;;9.33;80.66;95512.50;5056087;28;20920;-63
2021/05/06 12:19:06;;;;;;;3.63;1.50;;;;;;;9.42;81.58;95508.44;5055404;28;20436;-63
2021/05/06 12:21:35;;;;;;;3.50;1.53;;;;;;;9.41;82.08;95500.81;5055730;28;20949;-65
2021/05/06 12:24:02;;;;;;;1.90;1.37;;;;;;;9.62;80.36;95489.59;5055804;28;20495;-65
2021/05/06 12:26:28;;;;;;;5.70;2.23;;;;;;;10.04;80.37;95488.88;5055617;28;20473;-62
2021/05/06 12:28:55;;;;;;;3.97;1.60;;;;;;;9.98;79.97;95487.19;5060405;28;20593;-63
2021/05/06 12:31:20;;;;;;;3.30;1.73;;;;;;;9.66;81.69;95481.00;5075701;28;20410;-63
2021/05/06 12:33:46;;;;;;;1.50;1.40;;;;;;;9.60;85.06;95475.94;5075646;28;20494;-64
2021/05/06 12:36:12;;;;;;;1.63;1.50;;;;;;;10.02;83.79;95475.19;5075853;28;20185;-64
2021/05/06 12:38:39;;;;;;;2.63;1.40;;;;;;;10.36;81.70;95471.41;5074808;28;20170;-64
2021/05/06 12:41:07;;;;;;;2.00;1.47;;;;;;;9.90;84.55;95471.09;5075778;28;20752;-63
2021/05/06 12:43:34;;;;;;;2.60;2.40;;;;;;;9.51;86.50;95470.28;5070728;28;20433;-63
2021/05/06 12:46:06;;;;;;;3.30;2.00;;;;;;;9.81;85.77;95462.84;5055473;28;20485;-64
2021/05/06 12:48:37;;;;;;;2.20;1.30;;;;;;;9.38;89.18;95460.16;5055003;28;20401;-63
2021/05/06 12:51:04;;;;;;;1.60;1.50;;;;;;;9.56;89.16;95457.28;5055281;28;20413;-63
2021/05/06 12:53:30;;;;;;;3.30;1.97;;;;;;;9.20;90.29;95452.56;5055366;28;20404;-63
2021/05/06 12:55:56;;;;;;;3.43;2.30;;;;;;;9.50;91.15;95452.97;5055154;28;20420;-63
2021/05/06 12:58:29;;;;;;;5.17;2.13;;;;;;;9.82;89.55;95448.69;5054584;28;20427;-63
2021/05/06 13:00:58;;;;;;;6.43;2.60;;;;;;;10.36;87.68;95450.41;5055974;28;20175;-63
2021/05/06 13:03:42;;;;;;;5.93;2.27;;;;;;;10.22;87.29;95451.84;5073185;28;20424;-63
2021/05/06 13:06:16;;;;;;;4.70;2.20;;;;;;;10.11;88.37;95457.22;5056302;28;20452;-63
2021/05/06 13:08:47;;;;;;;7.00;2.60;;;;;;;10.50;86.54;95455.28;5067367;28;20436;-65
2021/05/06 13:11:15;;;;;;;3.73;2.20;;;;;;;10.18;88.57;95457.84;5074092;28;20769;-63
2021/05/06 13:13:45;;;;;;;4.73;2.30;;;;;;;10.03;89.85;95458.41;5074820;28;20842;-65
2021/05/06 13:16:12;;;;;;;2.93;2.00;;;;;;;10.38;89.29;95452.81;5074560;28;20416;-65
2021/05/06 13:18:38;;;;;;;4.80;2.30;;;;;;;10.37;88.53;95448.59;5074085;28;20406;-67
2021/05/06 13:21:06;;;;;;;4.90;2.27;;;;;;;9.93;89.69;95447.78;5072813;28;20474;-66
2021/05/06 13:23:33;;;;;;;5.03;2.40;;;;;;;9.64;92.79;95448.97;5060816;28;20527;-70
2021/05/06 13:26:00;;;;;;;5.87;2.80;;;;;;;9.86;92.14;95439.31;5058440;28;20418;-64
2021/05/06 13:28:32;;;;;;;7.60;3.17;;;;;;;10.02;92.69;95435.03;5054191;28;20452;-68
2021/05/06 13:31:20;;;;;;;4.70;2.90;;;;;;;9.76;93.37;95436.56;5054582;28;20401;-69
2021/05/06 13:33:48;;;;;;;4.23;2.30;;;;;;;9.60;93.82;95421.66;5053378;28;20409;-63
2021/05/06 13:36:20;;;;;;;4.30;2.70;;;;;;;9.51;95.98;95417.84;5061112;28;20409;-69
2021/05/06 13:39:00;;;;;;;6.73;3.20;;;;;;;9.35;97.68;95409.00;5073745;28;20419;-68
2021/05/06 13:41:26;;;;;;;4.23;2.93;;;;;;;9.66;97.82;95404.16;5073312;28;20431;-63
2021/05/06 13:43:53;;;;;;;5.30;3.20;;;;;;;9.82;96.38;95396.22;5071887;28;20421;-66
2021/05/06 13:46:19;;;;;;;5.00;3.00;;;;;;;9.92;96.34;95385.06;5073211;28;20531;-63
2021/05/06 13:48:45;;;;;;;6.33;3.40;;;;;;;10.18;96.55;95374.63;5073161;28;20570;-67
2021/05/06 13:51:11;;;;;;;4.53;2.80;;;;;;;10.21;96.83;95371.53;5069048;28;20428;-66
2021/05/06 13:53:39;;;;;;;3.73;2.80;;;;;;;10.25;95.31;95361.31;5064921;28;20170;-67
2021/05/06 13:56:05;;;;;;;7.57;3.53;;;;;;;10.28;95.41;95358.19;5066655;28;20426;-67
2021/05/06 13:58:31;;;;;;;4.97;3.37;;;;;;;10.60;95.84;95361.63;5053542;28;20409;-66
2021/05/06 14:00:57;;;;;;;4.27;2.90;;;;;;;10.88;94.17;95350.03;5053973;28;20808;-70
2021/05/06 14:03:23;;;;;;;4.30;3.17;;;;;;;10.94;93.96;95344.53;5053907;28;20405;-66
2021/05/06 14:05:49;;;;;;;4.53;3.00;;;;;;;11.04;93.18;95344.63;5071873;28;20462;-68
2021/05/06 14:08:15;;;;;;;3.97;3.57;;;;;;;11.14;93.72;95343.91;5073210;28;20198;-69
2021/05/06 14:10:41;;;;;;;4.53;2.73;;;;;;;11.14;92.86;95326.25;5073142;28;20425;-69
2021/05/06 14:13:07;;;;;;;4.70;2.87;;;;;;;11.11;92.22;95328.63;5061247;28;20931;-69
2021/05/06 14:15:33;;;;;;;5.03;3.13;;;;;;;11.17;92.20;95322.34;5063437;28;20454;-69
2021/05/06 14:17:58;;;;;;;3.77;2.63;;;;;;;11.33;91.34;95319.56;5071423;28;20221;-69
2021/05/06 14:20:24;;;;;;;2.93;2.17;;;;;;;10.90;91.62;95329.53;5073021;28;20444;-68
2021/05/06 14:22:50;;;;;;;3.77;2.33;;;;;;;10.66;92.07;95320.44;5073434;28;20163;-66
2021/05/06 14:25:16;;;;;;;3.60;2.20;;;;;;;10.66;93.21;95315.16;5073576;28;20493;-66
2021/05/06 14:27:41;;;;;;;4.17;2.07;;;;;;;10.15;93.75;95312.13;5073160;28;20894;-66
2021/05/06 14:30:07;;;;;;;2.30;1.80;;;;;;;9.96;96.11;95312.69;5071118;28;20193;-66
2021/05/06 14:32:32;;;;;;;3.20;2.13;;;;;;;9.32;98.77;95307.25;5066573;28;20258;-69
2021/05/06 14:34:58;;;;;;;3.10;1.63;;;;;;;9.80;98.87;95298.63;5053428;28;20459;-68
2021/05/06 14:37:23;;;;;;;1.77;1.50;;;;;;;9.74;99.26;95296.19;5053170;28;20641;-69
2021/05/06 14:39:49;;;;;;;4.23;2.10;;;;;;;9.98;97.57;95287.78;5053332;28;20194;-68
2021/05/06 14:42:15;;;;;;;1.93;1.83;;;;;;;9.99;96.60;95296.44;5053661;28;20179;-69
2021/05/06 14:44:41;;;;;;;2.47;1.67;;;;;;;9.83;96.77;95285.03;5053488;28;20178;-69
2021/05/06 14:47:06;;;;;;;4.10;2.00;;;;;;;9.80;97.70;95280.25;5053918;28;20211;-69
2021/05/06 14:49:32;;;;;;;2.10;1.37;;;;;;;9.60;97.12;95281.88;5053176;28;20551;-67
2021/05/06 14:51:57;;;;;;;7.87;2.77;;;;;;;9.26;100.00;95281.22;5050598;28;20412;-69
2021/05/06 14:54:23;;;;;;;4.87;2.17;;;;;;;9.33;100.00;95266.09;5049855;28;20527;-68
2021/05/06 14:56:48;;;;;;;7.07;2.50;;;;;;;9.44;100.00;95262.56;5049861;28;20170;-69
2021/05/06 14:59:14;;;;;;;6.63;2.57;;;;;;;9.56;99.46;95258.00;5049142;28;20253;-67
2021/05/06 15:01:39;;;;;;;7.23;2.40;;;;;;;9.47;100.00;95248.97;5066178;28;20180;-67
2021/05/06 15:04:05;;;;;;;7.90;2.57;;;;;;;9.20;100.00;95259.41;5072067;28;20219;-68
2021/05/06 15:06:30;;;;;;;3.53;1.83;;;;;;;9.32;100.00;95246.97;5073816;28;20815;-67
2021/05/06 15:08:56;;;;;;;3.43;1.60;;;;;;;9.76;99.25;95249.53;5066332;28;20272;-70
2021/05/06 15:11:21;;;;;;;3.77;2.10;;;;;;;9.80;98.23;95250.63;5056189;28;20256;-69
2021/05/06 15:13:47;;;;;;;4.30;2.00;;;;;;;9.62;98.51;95249.13;5054843;28;20195;-66
2021/05/06 15:16:12;;;;;;;3.47;1.60;;;;;;;9.50;98.81;95235.38;5053259;28;20177;-69
2021/05/06 15:18:37;;;;;;;4.20;1.77;;;;;;;9.45;99.30;95240.56;5053215;28;20529;-67